Time;durP1;ratioP1;P1;durP2;ratioP2;P2;SDS_P1;SDS_P2;PMS_P1;PMS_P2;Temp;Humidity;BMP_temperature;BMP_pressure;BME280_temperature;BME280_humidity;BME280_pressure;Samples;Min_cycle;Max_cycle;Signal;HPM_P1;HPM_P2
2023/11/26 20:20:58;;;;;;;7.32;1.90;;;;;;;;;;5013475;27;92866;-65
2023/11/26 20:23:24;;;;;;;3.40;1.52;;;;;;;;;;4999088;28;58871;-66
2023/11/26 20:25:50;;;;;;;3.70;1.23;;;;;;;;;;5000211;28;57834;-66
2023/11/26 20:28:16;;;;;;;2.83;1.50;;;;;;;;;;4998863;28;57863;-66
2023/11/26 20:30:41;;;;;;;5.63;2.03;;;;;;;;;;4997445;28;58057;-66
2023/11/26 20:33:06;;;;;;;0.85;0.63;;;;;;;;;;4999198;28;57853;-71
2023/11/26 20:35:33;;;;;;;1.93;0.70;;;;;;;;;;4998472;28;57852;-68
2023/11/26 20:37:58;;;;;;;1.95;1.50;;;;;;;;;;4998021;28;58407;-67
2023/11/26 20:40:23;;;;;;;6.37;1.77;;;;;;;;;;4998931;28;57864;-67
2023/11/26 20:42:48;;;;;;;4.32;1.10;;;;;;;;;;4999115;28;58918;-66
2023/11/26 20:45:14;;;;;;;5.57;1.40;;;;;;;;;;4998453;28;57876;-65
2023/11/26 20:47:43;;;;;;;4.63;1.40;;;;;;;;;;4997380;28;57844;-67
2023/11/26 20:50:08;;;;;;;4.85;1.92;;;;;;;;;;4997508;28;58223;-66
2023/11/26 20:52:33;;;;;;;5.70;1.57;;;;;;;;;;4998543;28;58138;-67
2023/11/26 20:55:06;;;;;;;6.53;1.17;;;;;;;;;;4999091;28;57446;-67
2023/11/26 20:57:31;;;;;;;5.55;1.77;;;;;;;;;;4996455;28;59234;-67
2023/11/26 20:59:56;;;;;;;4.80;1.40;;;;;;;;;;4994425;28;58118;-68
2023/11/26 21:02:22;;;;;;;6.28;2.35;;;;;;;;;;4997346;28;58074;-67
2023/11/26 21:04:47;;;;;;;2.93;1.90;;;;;;;;;;4999703;28;57832;-68
2023/11/26 21:07:12;;;;;;;5.97;1.43;;;;;;;;;;4998495;28;58227;-67
2023/11/26 21:09:37;;;;;;;5.67;1.07;;;;;;;;;;4997893;28;58050;-68
2023/11/26 21:12:02;;;;;;;3.10;1.45;;;;;;;;;;4997246;28;58188;-67
2023/11/26 21:14:28;;;;;;;3.10;1.87;;;;;;;;;;4996942;28;58987;-68
2023/11/26 21:16:53;;;;;;;4.60;1.63;;;;;;;;;;4998272;28;58280;-69
2023/11/26 21:19:18;;;;;;;4.70;1.37;;;;;;;;;;4998171;28;57997;-68
2023/11/26 21:21:43;;;;;;;5.93;1.23;;;;;;;;;;4998859;28;58122;-69
2023/11/26 21:24:09;;;;;;;2.40;1.43;;;;;;;;;;4999884;28;59171;-72
2023/11/26 21:26:35;;;;;;;2.72;1.17;;;;;;;;;;5001460;28;57866;-67
2023/11/26 21:29:01;;;;;;;7.50;2.25;;;;;;;;;;4999093;28;59079;-70
2023/11/26 21:31:26;;;;;;;7.87;1.90;;;;;;;;;;4989832;28;57558;-70
2023/11/26 21:33:51;;;;;;;3.20;1.48;;;;;;;;;;4984628;28;57820;-69
2023/11/26 21:36:16;;;;;;;1.70;1.57;;;;;;;;;;4982238;28;58939;-70
2023/11/26 21:38:43;;;;;;;4.23;1.50;;;;;;;;;;4984360;28;58168;-68
2023/11/26 21:41:11;;;;;;;3.00;1.83;;;;;;;;;;4985027;28;58288;-71
2023/11/26 21:43:36;;;;;;;6.88;1.58;;;;;;;;;;4981660;28;63492;-73
2023/11/26 21:46:01;;;;;;;6.00;1.47;;;;;;;;;;4983620;28;57196;-73
2023/11/26 21:48:27;;;;;;;1.73;1.00;;;;;;;;;;4980886;28;59853;-72
2023/11/26 21:50:52;;;;;;;6.32;1.45;;;;;;;;;;4983131;28;58227;-71
2023/11/26 21:53:17;;;;;;;7.07;2.47;;;;;;;;;;4982853;28;57747;-68
2023/11/26 21:55:43;;;;;;;3.58;0.95;;;;;;;;;;4982760;28;57988;-69
2023/11/26 21:58:08;;;;;;;3.65;1.58;;;;;;;;;;4981026;28;57812;-71
2023/11/26 22:00:33;;;;;;;3.27;1.23;;;;;;;;;;4983363;28;57962;-71
2023/11/26 22:02:58;;;;;;;5.25;1.52;;;;;;;;;;4980833;28;58669;-69
2023/11/26 22:05:23;;;;;;;3.45;1.73;;;;;;;;;;4982102;28;57888;-70
2023/11/26 22:07:49;;;;;;;4.30;1.00;;;;;;;;;;4983470;28;57610;-70
2023/11/26 22:10:14;;;;;;;2.65;0.90;;;;;;;;;;4981207;28;58053;-70
2023/11/26 22:12:39;;;;;;;1.77;1.23;;;;;;;;;;4983829;28;57725;-69
2023/11/26 22:15:04;;;;;;;1.85;1.23;;;;;;;;;;4982138;28;59907;-71
2023/11/26 22:17:29;;;;;;;1.38;1.00;;;;;;;;;;4983085;28;57221;-72
2023/11/26 22:19:54;;;;;;;2.53;1.27;;;;;;;;;;4984407;28;57901;-77
2023/11/26 22:22:22;;;;;;;3.83;0.85;;;;;;;;;;4981945;28;59534;-77
2023/11/26 22:24:48;;;;;;;3.88;1.45;;;;;;;;;;4981148;28;58177;-76
2023/11/26 22:27:13;;;;;;;1.33;0.80;;;;;;;;;;4980509;28;57889;-72
2023/11/26 22:29:39;;;;;;;3.03;1.20;;;;;;;;;;4982814;28;58030;-72
2023/11/26 22:32:04;;;;;;;1.58;1.13;;;;;;;;;;4980936;28;57919;-77
2023/11/26 22:34:29;;;;;;;2.40;0.80;;;;;;;;;;4983035;28;57316;-77
2023/11/26 22:36:54;;;;;;;4.77;0.97;;;;;;;;;;4981890;28;57907;-74
2023/11/26 22:39:19;;;;;;;1.67;0.95;;;;;;;;;;4982579;28;58844;-77
2023/11/26 22:41:44;;;;;;;2.55;1.20;;;;;;;;;;4981847;28;59200;-71
2023/11/26 22:44:10;;;;;;;4.75;0.80;;;;;;;;;;4984655;28;58181;-71
2023/11/26 22:46:36;;;;;;;5.03;1.00;;;;;;;;;;4982184;28;58010;-78
2023/11/26 22:49:01;;;;;;;2.67;0.82;;;;;;;;;;4984331;28;59825;-72
2023/11/26 22:51:27;;;;;;;2.90;1.15;;;;;;;;;;4981978;28;59575;-73
2023/11/26 22:53:52;;;;;;;3.05;0.65;;;;;;;;;;4983978;28;59027;-77
2023/11/26 22:56:19;;;;;;;4.40;1.60;;;;;;;;;;4981559;28;57432;-70
2023/11/26 22:58:44;;;;;;;4.60;1.40;;;;;;;;;;4982467;28;58512;-71
2023/11/26 23:01:10;;;;;;;2.90;0.93;;;;;;;;;;4980682;28;58697;-72
2023/11/26 23:03:35;;;;;;;3.08;1.15;;;;;;;;;;4983592;28;58207;-72
2023/11/26 23:06:00;;;;;;;2.20;0.70;;;;;;;;;;4979751;28;57869;-71
2023/11/26 23:08:26;;;;;;;3.20;0.98;;;;;;;;;;4982981;28;58775;-70
2023/11/26 23:10:51;;;;;;;2.55;0.80;;;;;;;;;;4983835;28;58276;-69
2023/11/26 23:13:19;;;;;;;3.80;1.37;;;;;;;;;;4982449;28;58962;-73
2023/11/26 23:15:44;;;;;;;;;;;;;;;;;;4982376;28;57884;-73
2023/11/26 23:18:10;;;;;;;2.40;0.82;;;;;;;;;;4981083;28;57823;-74
2023/11/26 23:20:35;;;;;;;2.00;0.70;;;;;;;;;;4980170;28;58204;-72
2023/11/26 23:23:00;;;;;;;1.33;1.00;;;;;;;;;;4985179;28;58950;-68
2023/11/26 23:25:26;;;;;;;6.07;1.15;;;;;;;;;;4981407;28;57879;-69
2023/11/26 23:27:51;;;;;;;3.00;0.80;;;;;;;;;;4982822;28;59989;-69
2023/11/26 23:30:16;;;;;;;4.70;1.30;;;;;;;;;;4978859;28;57856;-69
2023/11/26 23:32:41;;;;;;;1.50;0.80;;;;;;;;;;4983312;28;57867;-69
2023/11/26 23:35:06;;;;;;;3.30;0.63;;;;;;;;;;4980492;28;58200;-68
2023/11/26 23:37:32;;;;;;;2.05;1.10;;;;;;;;;;4982164;28;57997;-69
2023/11/26 23:39:57;;;;;;;3.20;1.08;;;;;;;;;;4979599;28;57988;-70
2023/11/26 23:42:22;;;;;;;1.80;1.07;;;;;;;;;;4980979;28;58034;-70
2023/11/26 23:44:47;;;;;;;0.90;0.70;;;;;;;;;;4980504;28;58035;-68
2023/11/26 23:47:12;;;;;;;1.38;0.77;;;;;;;;;;4980218;28;57836;-76
2023/11/26 23:49:37;;;;;;;3.00;0.70;;;;;;;;;;4981774;28;58091;-71
2023/11/26 23:52:03;;;;;;;2.10;1.02;;;;;;;;;;4981895;28;58072;-72
2023/11/26 23:54:28;;;;;;;6.95;0.75;;;;;;;;;;4982724;28;59079;-72
2023/11/26 23:56:54;;;;;;;1.85;0.65;;;;;;;;;;4981130;28;59331;-72
2023/11/26 23:59:19;;;;;;;1.45;0.60;;;;;;;;;;4979942;28;58749;-72
